Time;durP1;ratioP1;P1;durP2;ratioP2;P2;SDS_P1;SDS_P2;PMS_P1;PMS_P2;Temp;Humidity;BMP_temperature;BMP_pressure;BME280_temperature;BME280_humidity;BME280_pressure;Samples;Min_cycle;Max_cycle;Signal;HPM_P1;HPM_P2
2022/05/06 00:01:25;;;;;;;34.03;14.07;;;11.60;99.90;;;;;;6205389;23;19993;-93
2022/05/06 00:03:53;;;;;;;23.55;13.63;;;11.40;99.90;;;;;;6213809;23;19997;-90
2022/05/06 00:06:21;;;;;;;27.65;14.38;;;11.40;99.90;;;;;;6196042;23;20013;-90
2022/05/06 00:08:55;;;;;;;25.02;14.82;;;11.30;99.90;;;;;;6195888;23;20004;-91
2022/05/06 00:11:24;;;;;;;30.75;14.02;;;11.30;99.90;;;;;;6218966;23;20001;-90
2022/05/06 00:13:57;;;;;;;23.20;12.95;;;11.30;99.90;;;;;;6217111;23;20005;-90
2022/05/06 00:16:39;;;;;;;26.67;13.70;;;11.30;99.90;;;;;;6217317;23;20009;-91
2022/05/06 00:19:11;;;;;;;28.67;14.65;;;11.20;99.90;;;;;;6195377;23;20005;-90
2022/05/06 00:21:42;;;;;;;24.15;15.07;;;11.30;99.90;;;;;;6219986;23;20028;-90
2022/05/06 00:24:13;;;;;;;29.13;14.88;;;11.30;99.90;;;;;;6193415;23;20060;-89
2022/05/06 00:26:39;;;;;;;28.33;16.65;;;11.40;99.90;;;;;;6194796;23;20005;-89
2022/05/06 00:29:09;;;;;;;27.52;15.93;;;11.40;99.90;;;;;;6220397;23;20087;-90
2022/05/06 00:31:35;;;;;;;28.05;15.55;;;11.50;99.90;;;;;;6193308;23;20400;-89
2022/05/06 00:34:00;;;;;;;28.25;14.48;;;11.40;99.90;;;;;;6187392;23;20001;-87
2022/05/06 00:36:26;;;;;;;27.35;15.30;;;11.50;99.90;;;;;;6185215;23;20092;-89
2022/05/06 00:38:52;;;;;;;34.58;15.45;;;11.50;99.90;;;;;;6208672;23;20005;-88
2022/05/06 00:41:18;;;;;;;21.77;14.15;;;11.40;99.90;;;;;;6186033;23;20084;-89
2022/05/06 00:43:44;;;;;;;26.63;14.90;;;11.50;99.90;;;;;;6185701;23;20077;-89
2022/05/06 00:46:38;;;;;;;27.58;15.07;;;11.50;99.90;;;;;;6184458;23;20037;-89
2022/05/06 00:49:25;;;;;;;37.95;17.00;;;11.50;99.90;;;;;;6177769;23;20001;-90
2022/05/06 00:51:51;;;;;;;28.48;15.20;;;11.50;99.90;;;;;;6187177;23;20055;-91
2022/05/06 00:54:17;;;;;;;23.35;14.68;;;11.50;99.90;;;;;;6193536;23;20001;-91
2022/05/06 00:56:46;;;;;;;21.42;14.40;;;11.40;99.90;;;;;;6187548;23;20431;-92
2022/05/06 00:59:15;;;;;;;29.98;15.45;;;11.40;99.90;;;;;;6193797;23;20009;-91
2022/05/06 01:01:43;;;;;;;24.15;15.93;;;11.30;99.90;;;;;;6187364;23;20009;-91
2022/05/06 01:04:10;;;;;;;25.45;15.25;;;11.30;99.90;;;;;;6187651;23;20001;-92
2022/05/06 01:06:37;;;;;;;27.50;16.60;;;11.30;99.90;;;;;;6210700;23;20343;-92
2022/05/06 01:09:03;;;;;;;31.45;18.17;;;11.40;99.90;;;;;;6211092;23;20016;-91
2022/05/06 01:11:29;;;;;;;33.15;17.48;;;11.40;99.90;;;;;;6185975;23;20213;-91
2022/05/06 01:13:59;;;;;;;29.92;17.35;;;11.40;99.90;;;;;;6212434;23;20008;-91
2022/05/06 01:16:41;;;;;;;29.70;18.20;;;11.40;99.90;;;;;;6198314;23;20032;-91
2022/05/06 01:19:06;;;;;;;35.60;18.15;;;11.40;99.90;;;;;;6205712;23;20001;-92
2022/05/06 01:21:47;;;;;;;31.58;18.23;;;11.30;99.90;;;;;;6227286;23;20019;-92
2022/05/06 01:24:13;;;;;;;31.52;17.70;;;11.40;99.90;;;;;;6230659;23;19989;-92
2022/05/06 01:27:09;;;;;;;28.33;17.30;;;11.40;99.90;;;;;;6203464;23;20005;-92
2022/05/06 01:29:37;;;;;;;32.08;18.13;;;11.30;99.90;;;;;;6228190;23;20001;-92
2022/05/06 01:32:06;;;;;;;29.13;16.65;;;11.40;99.90;;;;;;6204047;23;20005;-93
2022/05/06 01:34:42;;;;;;;33.08;19.13;;;11.40;99.90;;;;;;6219665;23;20005;-92
2022/05/06 01:37:11;;;;;;;32.50;17.98;;;11.40;99.90;;;;;;6191245;23;20020;-92
2022/05/06 01:39:42;;;;;;;25.88;17.13;;;11.40;99.90;;;;;;6191509;23;20008;-92
2022/05/06 01:42:13;;;;;;;33.20;18.90;;;11.40;99.90;;;;;;6185422;23;20335;-90
2022/05/06 01:44:41;;;;;;;36.75;17.92;;;11.30;99.90;;;;;;6214011;23;20005;-93
2022/05/06 01:47:16;;;;;;;28.90;16.77;;;11.30;99.90;;;;;;6213538;23;20015;-90
2022/05/06 01:49:43;;;;;;;29.85;17.50;;;11.30;99.90;;;;;;6183496;23;20009;-90
2022/05/06 01:52:14;;;;;;;31.45;18.65;;;11.20;99.90;;;;;;6188861;23;20001;-92
2022/05/06 01:54:43;;;;;;;28.58;16.45;;;11.20;99.90;;;;;;6201955;23;20016;-90
2022/05/06 01:57:14;;;;;;;29.85;17.67;;;11.20;99.90;;;;;;6209764;23;20051;-91
2022/05/06 01:59:39;;;;;;;29.17;17.30;;;11.20;99.90;;;;;;6208688;23;20001;-89
2022/05/06 02:02:05;;;;;;;35.95;21.02;;;11.10;99.90;;;;;;6208791;23;20064;-91
2022/05/06 02:07:15;;;;;;;33.45;17.52;;;11.20;99.90;;;;;;6185346;23;20016;-89
2022/05/06 02:09:44;;;;;;;29.45;17.25;;;11.20;99.90;;;;;;6218046;23;20467;-90
2022/05/06 02:12:13;;;;;;;32.03;18.52;;;11.20;99.90;;;;;;6199543;23;20001;-91
2022/05/06 02:14:38;;;;;;;27.35;17.13;;;11.20;99.90;;;;;;6228768;23;20001;-90
2022/05/06 02:17:07;;;;;;;30.30;16.85;;;11.20;99.90;;;;;;6231130;23;20005;-90
2022/05/06 02:19:44;;;;;;;33.83;18.60;;;11.30;99.90;;;;;;6194224;23;19993;-91
2022/05/06 02:22:29;;;;;;;30.63;18.42;;;11.30;99.90;;;;;;6210622;23;20013;-92
2022/05/06 02:24:57;;;;;;;42.53;21.83;;;11.20;99.90;;;;;;6210730;23;20008;-90
2022/05/06 02:27:23;;;;;;;35.10;20.27;;;11.20;99.90;;;;;;6218600;23;20017;-90
2022/05/06 02:35:17;;;;;;;33.63;20.17;;;11.30;99.90;;;;;;6184974;23;20081;-90
2022/05/06 02:37:43;;;;;;;35.08;19.88;;;11.30;99.90;;;;;;6207963;23;20335;-89
2022/05/06 02:40:10;;;;;;;36.25;21.73;;;11.30;99.90;;;;;;6207420;23;20009;-90
2022/05/06 02:42:36;;;;;;;45.33;19.45;;;11.20;99.90;;;;;;6184274;23;20566;-89
2022/05/06 02:45:02;;;;;;;44.47;22.23;;;11.10;99.90;;;;;;6208030;23;20032;-89
2022/05/06 02:47:27;;;;;;;39.38;20.55;;;11.10;99.90;;;;;;6214397;23;20453;-90
2022/05/06 02:49:53;;;;;;;36.72;19.48;;;11.10;99.90;;;;;;6184842;23;20072;-89
2022/05/06 02:52:19;;;;;;;30.70;18.60;;;11.10;99.90;;;;;;6183045;23;20028;-90
2022/05/06 02:54:45;;;;;;;31.67;18.75;;;11.20;99.90;;;;;;6208123;23;20043;-89
2022/05/06 02:59:39;;;;;;;34.58;18.00;;;11.20;99.90;;;;;;6184672;23;20021;-88
2022/05/06 03:02:08;;;;;;;32.95;19.05;;;11.10;99.90;;;;;;6207352;23;20445;-89
2022/05/06 03:04:34;;;;;;;30.30;19.00;;;11.10;99.90;;;;;;6184487;23;20001;-89
2022/05/06 03:06:59;;;;;;;37.80;19.15;;;11.10;99.90;;;;;;6182106;23;20015;-89
2022/05/06 03:09:25;;;;;;;32.83;20.05;;;11.00;99.90;;;;;;6207698;23;20005;-89
2022/05/06 03:11:52;;;;;;;34.10;19.67;;;11.00;99.90;;;;;;6184320;23;20013;-89
2022/05/06 03:14:17;;;;;;;33.35;19.35;;;11.00;99.90;;;;;;6184547;23;20004;-89
2022/05/06 03:16:43;;;;;;;37.15;18.50;;;10.90;99.90;;;;;;6207402;23;20096;-90
2022/05/06 03:19:10;;;;;;;40.53;20.30;;;10.90;99.90;;;;;;6184040;23;20009;-90
2022/05/06 03:21:36;;;;;;;36.67;19.67;;;10.90;99.90;;;;;;6207366;23;20005;-90
2022/05/06 03:24:01;;;;;;;37.42;20.92;;;10.90;99.90;;;;;;6207786;23;20005;-90
2022/05/06 03:26:27;;;;;;;35.95;20.77;;;10.90;99.90;;;;;;6183734;23;20011;-90
2022/05/06 03:28:56;;;;;;;38.05;20.92;;;10.80;99.90;;;;;;6184545;23;20001;-89
2022/05/06 03:31:22;;;;;;;41.22;22.17;;;10.80;99.90;;;;;;6182372;23;20008;-87
2022/05/06 03:33:49;;;;;;;39.67;20.70;;;10.70;99.90;;;;;;6206657;23;20001;-88
2022/05/06 03:36:15;;;;;;;35.03;20.40;;;10.70;99.90;;;;;;6183870;23;20005;-90
2022/05/06 03:38:41;;;;;;;39.35;19.80;;;10.70;99.90;;;;;;6182325;23;20449;-89
2022/05/06 03:41:06;;;;;;;35.58;19.27;;;10.60;99.90;;;;;;6184295;23;20005;-90
2022/05/06 03:43:32;;;;;;;38.80;20.63;;;10.60;99.90;;;;;;6184721;23;20009;-89
2022/05/06 03:45:58;;;;;;;40.75;20.55;;;10.60;99.90;;;;;;6182879;23;20009;-88
2022/05/06 03:48:26;;;;;;;32.33;19.13;;;10.60;99.90;;;;;;6208239;23;20009;-87
2022/05/06 03:53:36;;;;;;;35.00;19.27;;;10.50;99.90;;;;;;6184144;23;20127;-88
2022/05/06 03:56:03;;;;;;;39.05;19.70;;;10.50;99.90;;;;;;6183934;23;20020;-88
2022/05/06 03:58:30;;;;;;;32.70;18.65;;;10.50;99.90;;;;;;6183544;23;20019;-89
2022/05/06 04:00:55;;;;;;;28.58;17.67;;;10.40;99.90;;;;;;6207628;23;20067;-89
2022/05/06 04:03:22;;;;;;;36.50;19.13;;;10.40;99.90;;;;;;6183896;23;20005;-87
2022/05/06 04:05:48;;;;;;;31.50;18.83;;;10.40;99.90;;;;;;6184331;23;20334;-87
2022/05/06 04:08:14;;;;;;;33.42;18.30;;;10.40;99.90;;;;;;6182224;23;20037;-88
2022/05/06 04:10:39;;;;;;;34.90;19.67;;;10.40;99.90;;;;;;6184217;23;20494;-88
2022/05/06 04:13:05;;;;;;;36.40;19.23;;;10.30;99.90;;;;;;6207727;23;20012;-89
2022/05/06 04:15:34;;;;;;;32.17;18.25;;;10.30;99.90;;;;;;6181902;23;20471;-88
2022/05/06 04:18:00;;;;;;;33.70;17.80;;;10.30;99.90;;;;;;6184072;23;20001;-88
2022/05/06 04:26:01;;;;;;;33.20;17.85;;;10.20;99.90;;;;;;6184156;23;20377;-90
2022/05/06 04:28:28;;;;;;;36.20;16.80;;;10.20;99.90;;;;;;6207837;23;20001;-90
2022/05/06 04:30:54;;;;;;;36.33;18.00;;;10.20;99.90;;;;;;6185758;23;20076;-91
2022/05/06 04:33:21;;;;;;;35.88;18.30;;;10.10;99.90;;;;;;6209049;23;20395;-90
2022/05/06 04:35:48;;;;;;;29.83;17.75;;;10.10;99.90;;;;;;6209087;23;20005;-88
2022/05/06 04:38:14;;;;;;;38.05;18.27;;;10.10;99.90;;;;;;6185834;23;20088;-91
2022/05/06 04:40:41;;;;;;;28.92;17.40;;;10.10;99.90;;;;;;6197625;23;20013;-91
2022/05/06 04:43:07;;;;;;;36.28;18.17;;;10.10;99.90;;;;;;6185653;23;20532;-90
2022/05/06 04:45:40;;;;;;;39.70;18.75;;;10.10;99.90;;;;;;6185665;23;20009;-89
2022/05/06 04:48:07;;;;;;;31.63;18.80;;;10.10;99.90;;;;;;6185739;23;20009;-90
2022/05/06 04:50:36;;;;;;;32.47;18.77;;;10.10;99.90;;;;;;6185718;23;19997;-90
2022/05/06 04:53:05;;;;;;;31.83;18.58;;;10.10;99.90;;;;;;6185983;23;20025;-90
2022/05/06 04:55:30;;;;;;;32.08;18.30;;;10.00;99.90;;;;;;6209091;23;20468;-91
2022/05/06 04:57:56;;;;;;;33.92;18.42;;;10.00;99.90;;;;;;6185419;23;20017;-90
2022/05/06 05:00:22;;;;;;;36.63;17.55;;;10.00;99.90;;;;;;6209242;23;20008;-88
2022/05/06 05:02:48;;;;;;;34.28;16.92;;;10.00;99.90;;;;;;6209656;23;20005;-89
2022/05/06 05:05:14;;;;;;;29.60;17.73;;;10.00;99.90;;;;;;6185233;23;20084;-91
2022/05/06 05:07:40;;;;;;;31.67;18.02;;;9.90;99.90;;;;;;6186007;23;20001;-90
2022/05/06 05:10:08;;;;;;;28.05;16.80;;;9.90;99.90;;;;;;6185851;23;20001;-90
2022/05/06 05:12:35;;;;;;;29.52;18.75;;;9.90;99.90;;;;;;6186264;23;20001;-89
2022/05/06 05:15:01;;;;;;;36.80;18.77;;;9.90;99.90;;;;;;6184723;23;20001;-89
2022/05/06 05:17:26;;;;;;;28.15;17.73;;;9.90;99.90;;;;;;6184254;23;20012;-89
2022/05/06 05:19:52;;;;;;;32.92;17.75;;;9.90;99.90;;;;;;6186155;23;20008;-90
2022/05/06 05:22:18;;;;;;;31.48;17.25;;;9.90;99.90;;;;;;6186093;23;20016;-90
2022/05/06 05:24:44;;;;;;;31.50;18.25;;;10.00;99.90;;;;;;6184699;23;20016;-89
2022/05/06 05:27:10;;;;;;;29.38;17.23;;;10.00;99.90;;;;;;6208893;23;20009;-90
2022/05/06 05:29:35;;;;;;;28.92;16.52;;;10.00;99.90;;;;;;6185927;23;20073;-89
2022/05/06 05:32:02;;;;;;;26.52;15.80;;;10.10;99.90;;;;;;6185622;23;20001;-92
2022/05/06 05:34:27;;;;;;;32.15;17.17;;;10.10;99.90;;;;;;6214584;23;20025;-91
2022/05/06 05:37:10;;;;;;;31.85;15.63;;;10.10;99.90;;;;;;6183456;23;20084;-89
2022/05/06 05:39:36;;;;;;;32.33;17.15;;;10.20;99.90;;;;;;6184355;23;20055;-90
2022/05/06 05:42:03;;;;;;;35.85;16.20;;;10.20;99.90;;;;;;6184499;23;20005;-91
2022/05/06 05:49:57;;;;;;;27.23;16.00;;;10.30;99.90;;;;;;6185326;23;20013;-88
2022/05/06 05:52:23;;;;;;;24.38;14.48;;;10.40;99.90;;;;;;6208311;23;20001;-87
2022/05/06 05:54:48;;;;;;;26.35;14.68;;;10.40;99.90;;;;;;6185403;23;20060;-89
2022/05/06 05:57:14;;;;;;;26.77;14.88;;;10.50;99.90;;;;;;6208255;23;20009;-90
2022/05/06 05:59:41;;;;;;;25.52;14.30;;;10.50;99.90;;;;;;6208213;23;20027;-91
2022/05/06 06:02:08;;;;;;;27.60;15.20;;;10.50;99.90;;;;;;6184610;23;20005;-89
2022/05/06 06:04:33;;;;;;;22.98;13.68;;;10.60;99.90;;;;;;6208809;23;20155;-90
2022/05/06 06:06:59;;;;;;;26.30;13.80;;;10.70;99.90;;;;;;6187406;23;20036;-90
2022/05/06 06:09:27;;;;;;;25.08;13.48;;;10.70;99.90;;;;;;6184584;23;20024;-89
2022/05/06 06:11:52;;;;;;;20.33;12.88;;;10.70;99.90;;;;;;6184834;23;20012;-89
2022/05/06 06:14:18;;;;;;;22.13;12.75;;;10.80;99.90;;;;;;6185028;23;20013;-89
2022/05/06 06:16:44;;;;;;;26.63;11.63;;;10.90;99.90;;;;;;6184532;23;20011;-89
2022/05/06 06:19:10;;;;;;;19.48;11.52;;;10.90;99.90;;;;;;6208703;23;20037;-88
2022/05/06 06:21:36;;;;;;;21.40;10.98;;;10.90;99.90;;;;;;6182709;23;20001;-88
2022/05/06 06:24:02;;;;;;;17.95;10.55;;;11.00;99.90;;;;;;6185241;23;20009;-89
2022/05/06 06:26:27;;;;;;;23.42;11.40;;;11.00;99.90;;;;;;6185520;23;20083;-87
2022/05/06 06:28:53;;;;;;;20.38;10.68;;;11.10;99.90;;;;;;6183713;23;20001;-90
2022/05/06 06:31:18;;;;;;;16.77;9.68;;;11.10;99.90;;;;;;6185129;23;20005;-89
2022/05/06 06:33:44;;;;;;;22.45;9.50;;;11.20;99.90;;;;;;6185507;23;19997;-89
2022/05/06 06:36:10;;;;;;;19.73;9.60;;;11.30;99.90;;;;;;6185208;23;20005;-89
2022/05/06 06:38:36;;;;;;;17.30;9.40;;;11.40;99.90;;;;;;6183135;23;20086;-90
2022/05/06 06:41:02;;;;;;;12.85;7.95;;;11.40;99.90;;;;;;6185302;23;20005;-90
2022/05/06 06:43:28;;;;;;;14.15;8.05;;;11.40;99.90;;;;;;6208680;23;20009;-89
2022/05/06 06:45:56;;;;;;;16.42;8.20;;;11.50;99.90;;;;;;6182709;23;20092;-90
2022/05/06 06:48:26;;;;;;;14.45;7.47;;;11.50;99.90;;;;;;6207448;23;20017;-90
2022/05/06 06:50:55;;;;;;;17.65;7.10;;;11.60;99.90;;;;;;6185295;23;20005;-88
2022/05/06 06:53:21;;;;;;;13.55;6.78;;;11.70;99.90;;;;;;6208670;23;20009;-91
2022/05/06 06:55:47;;;;;;;16.02;6.70;;;11.70;99.90;;;;;;6208779;23;20482;-90
2022/05/06 06:58:14;;;;;;;13.15;6.65;;;11.90;99.90;;;;;;6207923;23;20017;-90
2022/05/06 07:00:42;;;;;;;11.75;5.80;;;11.90;99.90;;;;;;6208553;23;20116;-90
2022/05/06 07:03:15;;;;;;;13.10;6.13;;;11.90;99.90;;;;;;6183547;23;20075;-90
2022/05/06 07:11:53;;;;;;;11.85;5.25;;;12.20;99.90;;;;;;6155894;23;20417;-91
2022/05/06 07:14:26;;;;;;;10.70;5.38;;;12.30;99.90;;;;;;6207939;23;20013;-89
2022/05/06 07:16:56;;;;;;;6.75;4.53;;;12.40;99.90;;;;;;6207010;23;20009;-90
2022/05/06 07:19:27;;;;;;;10.57;4.95;;;12.50;99.90;;;;;;6183066;23;20009;-90
2022/05/06 07:21:53;;;;;;;12.55;4.60;;;12.50;99.90;;;;;;6184447;23;20009;-90
2022/05/06 07:24:27;;;;;;;8.50;4.65;;;12.60;99.90;;;;;;6208849;23;20013;-91
2022/05/06 07:27:02;;;;;;;17.45;5.07;;;12.60;99.90;;;;;;6184847;23;20032;-90
2022/05/06 07:29:31;;;;;;;5.78;3.88;;;12.70;99.90;;;;;;6184453;23;20351;-90
2022/05/06 07:31:59;;;;;;;5.13;3.50;;;12.80;99.90;;;;;;6184790;23;20001;-90
2022/05/06 07:34:30;;;;;;;8.65;3.28;;;12.90;99.90;;;;;;6184489;23;20001;-90
2022/05/06 07:36:56;;;;;;;8.07;3.97;;;13.00;99.90;;;;;;6206974;23;20005;-87
2022/05/06 07:39:22;;;;;;;7.75;3.38;;;13.20;99.90;;;;;;6182554;23;20036;-86
2022/05/06 07:41:47;;;;;;;5.82;3.55;;;13.30;99.90;;;;;;6184160;23;20078;-87
2022/05/06 07:44:13;;;;;;;6.95;3.22;;;13.30;99.90;;;;;;6184465;23;20344;-88
2022/05/06 07:46:39;;;;;;;9.63;2.88;;;13.40;99.90;;;;;;6183226;23;20092;-88
2022/05/06 07:49:05;;;;;;;5.57;2.40;;;13.50;99.90;;;;;;6185511;23;20060;-89
2022/05/06 07:51:31;;;;;;;7.20;3.83;;;13.60;99.90;;;;;;6185414;23;20439;-88
2022/05/06 07:53:57;;;;;;;6.45;2.65;;;13.80;99.90;;;;;;6184740;23;20024;-87
2022/05/06 07:56:24;;;;;;;4.45;2.50;;;13.90;99.90;;;;;;6184360;23;20535;-87
2022/05/06 07:58:51;;;;;;;6.35;2.65;;;13.90;99.90;;;;;;6184914;23;20462;-87
2022/05/06 08:01:17;;;;;;;3.28;2.45;;;14.00;99.90;;;;;;6184972;23;20002;-88
2022/05/06 08:06:30;;;;;;;4.60;2.00;;;14.10;95.20;;;;;;6186496;23;20012;-87
2022/05/06 08:08:56;;;;;;;3.30;2.50;;;14.20;94.80;;;;;;6186343;23;20001;-87
2022/05/06 08:11:22;;;;;;;4.05;2.28;;;14.20;93.40;;;;;;6209927;23;20005;-86
2022/05/06 08:13:49;;;;;;;6.32;2.00;;;14.30;92.50;;;;;;6186417;23;20024;-87
2022/05/06 08:16:15;;;;;;;2.75;1.98;;;14.40;93.10;;;;;;6186292;23;20004;-88
2022/05/06 08:18:40;;;;;;;3.25;1.95;;;14.50;90.80;;;;;;6186292;23;20092;-88
2022/05/06 08:21:06;;;;;;;6.68;2.08;;;14.60;90.30;;;;;;6186344;23;20001;-85
2022/05/06 08:23:31;;;;;;;5.43;1.75;;;14.70;90.30;;;;;;6209239;23;20009;-88
2022/05/06 08:25:57;;;;;;;8.82;2.63;;;14.80;88.60;;;;;;6209386;23;20096;-89
2022/05/06 08:28:24;;;;;;;5.43;2.63;;;14.90;84.40;;;;;;6210511;23;20407;-87
2022/05/06 08:30:52;;;;;;;3.80;2.17;;;15.00;84.60;;;;;;6209517;23;19997;-89
2022/05/06 08:33:18;;;;;;;4.63;2.30;;;15.10;80.60;;;;;;6186410;23;20025;-88
2022/05/06 08:35:44;;;;;;;3.08;1.60;;;15.10;79.20;;;;;;6210443;23;20348;-87
2022/05/06 08:38:11;;;;;;;11.88;2.20;;;15.20;77.90;;;;;;6186566;23;20435;-87
2022/05/06 08:40:37;;;;;;;2.25;1.73;;;15.30;78.20;;;;;;6186795;23;20008;-89
2022/05/06 08:43:04;;;;;;;5.13;1.80;;;15.40;78.80;;;;;;6210020;23;20387;-88
2022/05/06 08:51:04;;;;;;;5.95;2.05;;;15.90;76.20;;;;;;6186723;23;20011;-89
2022/05/06 08:53:32;;;;;;;4.60;1.95;;;16.00;72.10;;;;;;6210546;23;20025;-87
2022/05/06 08:55:59;;;;;;;5.57;2.00;;;16.00;70.20;;;;;;6210335;23;20008;-88
2022/05/06 08:58:31;;;;;;;5.75;2.40;;;15.90;70.80;;;;;;6211671;23;20009;-88
2022/05/06 09:01:03;;;;;;;7.00;2.20;;;15.90;71.10;;;;;;6186781;23;20024;-88
2022/05/06 09:03:29;;;;;;;5.72;2.75;;;15.90;71.20;;;;;;6209909;23;20031;-87
2022/05/06 09:05:59;;;;;;;7.75;2.50;;;15.90;69.00;;;;;;6209662;23;20017;-86
2022/05/06 09:08:44;;;;;;;5.88;2.20;;;16.00;70.00;;;;;;6185860;23;20009;-87
2022/05/06 09:11:10;;;;;;;7.15;2.10;;;16.00;69.20;;;;;;6209015;23;20005;-87
2022/05/06 09:13:55;;;;;;;5.78;2.55;;;16.00;70.40;;;;;;6209726;23;20035;-88
2022/05/06 09:16:44;;;;;;;7.25;2.30;;;16.00;69.60;;;;;;6210026;23;20343;-87
2022/05/06 09:19:41;;;;;;;4.97;2.03;;;16.00;69.20;;;;;;6183757;23;20063;-87
2022/05/06 09:22:13;;;;;;;3.83;2.28;;;16.00;68.60;;;;;;6186213;23;20001;-87
2022/05/06 09:24:44;;;;;;;6.22;2.28;;;16.00;68.00;;;;;;6185674;23;20494;-88
2022/05/06 09:27:17;;;;;;;3.58;2.00;;;16.10;68.40;;;;;;6185796;23;20008;-88
2022/05/06 09:29:51;;;;;;;4.30;2.15;;;16.30;69.30;;;;;;6184934;23;20005;-86
2022/05/06 09:32:19;;;;;;;4.25;2.03;;;16.40;67.40;;;;;;6185653;23;20008;-89
2022/05/06 09:34:52;;;;;;;6.78;2.50;;;16.40;67.20;;;;;;6185864;23;20079;-88
2022/05/06 09:37:35;;;;;;;9.52;2.83;;;16.40;65.60;;;;;;6208820;23;20013;-91
2022/05/06 09:40:02;;;;;;;6.72;2.25;;;16.40;66.20;;;;;;6184264;23;20060;-89
2022/05/06 09:42:28;;;;;;;6.15;2.38;;;16.30;67.60;;;;;;6209686;23;20012;-90
2022/05/06 09:44:53;;;;;;;5.03;2.58;;;16.50;66.90;;;;;;6185526;23;20009;-91
2022/05/06 09:47:20;;;;;;;3.78;2.47;;;16.50;65.40;;;;;;6185288;23;20005;-89
2022/05/06 09:49:45;;;;;;;4.18;2.25;;;16.50;65.70;;;;;;6185672;23;20079;-89
2022/05/06 09:52:12;;;;;;;6.80;2.13;;;16.60;66.00;;;;;;6208962;23;20387;-91
2022/05/06 09:54:43;;;;;;;6.97;2.15;;;16.70;66.00;;;;;;6209254;23;20020;-90
2022/05/06 09:57:14;;;;;;;5.38;2.33;;;16.80;65.30;;;;;;6183841;23;20001;-90
2022/05/06 09:59:40;;;;;;;6.55;2.30;;;17.10;65.40;;;;;;6209401;23;20032;-91
2022/05/06 10:02:08;;;;;;;7.75;2.35;;;17.30;63.80;;;;;;6185994;23;20005;-91
2022/05/06 10:04:35;;;;;;;7.90;2.03;;;17.40;62.90;;;;;;6208871;23;20013;-91
2022/05/06 10:07:04;;;;;;;6.80;2.13;;;17.60;62.90;;;;;;6185490;23;20330;-89
2022/05/06 10:09:34;;;;;;;10.13;1.85;;;17.80;62.50;;;;;;6212785;23;20032;-90
2022/05/06 10:12:03;;;;;;;6.10;2.03;;;18.10;60.40;;;;;;6188235;23;20001;-87
2022/05/06 10:14:45;;;;;;;4.40;2.25;;;18.30;59.60;;;;;;6208609;23;20001;-89
2022/05/06 10:19:59;;;;;;;;;;;;;;;;;;;;;
2022/05/06 10:22:58;;;;;;;5.35;2.22;;;18.80;58.70;;;;;;6155496;23;20084;-90
2022/05/06 10:25:42;;;;;;;9.55;2.30;;;19.00;56.90;;;;;;6178546;23;20009;-90
2022/05/06 10:34:17;;;;;;;3.13;1.73;;;19.40;54.70;;;;;;6155594;23;20020;-89
2022/05/06 10:36:54;;;;;;;4.28;1.60;;;19.70;55.20;;;;;;6179351;23;20060;-90
2022/05/06 10:39:26;;;;;;;4.13;2.00;;;19.90;52.80;;;;;;6155850;23;20012;-89
2022/05/06 10:42:01;;;;;;;5.65;2.00;;;20.00;51.00;;;;;;6155073;23;20294;-90
2022/05/06 10:44:34;;;;;;;6.55;1.67;;;20.10;53.10;;;;;;6156324;23;20001;-90
2022/05/06 10:47:00;;;;;;;6.97;1.70;;;20.30;51.70;;;;;;6177948;23;20412;-91
2022/05/06 10:49:34;;;;;;;3.53;1.70;;;20.20;50.80;;;;;;6155081;23;20092;-92
2022/05/06 10:52:36;;;;;;;4.40;1.92;;;20.60;54.30;;;;;;6155894;23;20140;-90
2022/05/06 10:55:03;;;;;;;3.85;1.33;;;21.00;50.50;;;;;;6155594;23;20002;-89
2022/05/06 10:57:31;;;;;;;2.90;1.70;;;21.20;49.80;;;;;;6155046;23;20002;-88
2022/05/06 10:59:57;;;;;;;9.02;1.70;;;21.00;49.10;;;;;;6178676;23;20005;-90
2022/05/06 11:02:31;;;;;;;2.95;1.45;;;20.80;50.70;;;;;;6178741;23;20037;-89
2022/05/06 11:05:21;;;;;;;3.15;1.73;;;20.60;50.70;;;;;;6179740;23;20412;-88
2022/05/06 11:07:55;;;;;;;6.82;2.00;;;20.30;50.60;;;;;;6178562;23;20006;-90
2022/05/06 11:10:26;;;;;;;7.25;1.80;;;20.10;50.90;;;;;;6155567;23;20076;-90
2022/05/06 11:12:59;;;;;;;7.63;2.25;;;20.70;51.90;;;;;;6178597;23;20009;-90
2022/05/06 11:15:32;;;;;;;3.00;1.70;;;21.10;47.70;;;;;;6155387;23;20005;-90
2022/05/06 11:18:01;;;;;;;6.28;1.73;;;20.90;49.00;;;;;;6153446;23;20009;-87
2022/05/06 11:20:31;;;;;;;6.88;1.60;;;20.60;49.60;;;;;;6175701;23;20087;-89
2022/05/06 11:22:57;;;;;;;3.83;1.75;;;20.10;50.90;;;;;;6152532;23;20002;-90
2022/05/06 11:25:24;;;;;;;4.43;1.63;;;20.00;50.10;;;;;;6176371;23;20092;-87
2022/05/06 11:27:52;;;;;;;7.00;2.13;;;20.20;51.30;;;;;;6153031;23;20052;-89
2022/05/06 11:30:19;;;;;;;2.33;1.50;;;20.40;49.50;;;;;;6176727;23;20122;-89
2022/05/06 11:32:54;;;;;;;2.63;1.60;;;20.30;49.40;;;;;;6154203;23;20017;-89
2022/05/06 11:35:46;;;;;;;4.80;1.88;;;20.20;49.70;;;;;;6153907;23;20025;-89
2022/05/06 11:38:13;;;;;;;6.13;1.35;;;20.00;49.60;;;;;;6154959;23;20424;-90
2022/05/06 11:40:39;;;;;;;6.32;1.40;;;20.00;49.80;;;;;;6156133;23;20116;-88
2022/05/06 11:43:21;;;;;;;5.70;1.98;;;19.80;49.90;;;;;;6156874;23;20005;-88
2022/05/06 11:48:42;;;;;;;;;;;20.30;50.00;;;;;;6156855;23;20017;-90
2022/05/06 11:51:09;;;;;;;3.50;1.40;;;20.90;47.70;;;;;;6156335;23;19947;-90
2022/05/06 11:53:35;;;;;;;6.15;1.20;;;21.50;47.50;;;;;;6179799;23;20124;-90
2022/05/06 11:56:02;;;;;;;10.02;1.20;;;21.60;47.40;;;;;;6154773;23;20052;-89
2022/05/06 11:58:28;;;;;;;2.80;1.38;;;21.90;46.60;;;;;;6156426;23;20077;-89
2022/05/06 12:00:54;;;;;;;5.38;1.73;;;21.80;46.00;;;;;;6156707;23;20005;-90
2022/05/06 12:03:21;;;;;;;3.28;1.65;;;21.70;46.60;;;;;;6156388;23;20013;-89
2022/05/06 12:06:01;;;;;;;2.75;1.95;;;21.90;46.80;;;;;;6154873;23;20092;-88
2022/05/06 12:08:29;;;;;;;4.25;1.40;;;21.90;45.40;;;;;;6156394;23;20105;-88
2022/05/06 12:11:05;;;;;;;8.38;1.58;;;21.90;45.10;;;;;;6156480;23;20304;-87
2022/05/06 12:13:33;;;;;;;4.65;1.48;;;21.90;46.10;;;;;;6179911;23;20006;-88
2022/05/06 12:16:10;;;;;;;4.25;1.60;;;22.00;46.30;;;;;;6156844;23;20010;-88
2022/05/06 12:18:37;;;;;;;6.50;1.77;;;22.10;44.40;;;;;;6179075;23;20001;-90
2022/05/06 12:21:17;;;;;;;3.17;1.67;;;22.10;45.30;;;;;;6179588;23;20036;-90
2022/05/06 12:23:56;;;;;;;2.08;1.02;;;21.70;45.30;;;;;;6179961;23;20448;-89
2022/05/06 12:26:36;;;;;;;7.57;1.30;;;21.60;45.90;;;;;;6156461;23;20567;-90
2022/05/06 12:29:04;;;;;;;11.93;1.38;;;21.60;45.90;;;;;;6179382;23;19998;-90
2022/05/06 12:31:32;;;;;;;5.95;1.45;;;21.70;45.50;;;;;;6179183;23;20009;-90
2022/05/06 12:34:07;;;;;;;4.57;1.48;;;21.70;46.60;;;;;;6156878;23;19998;-90
2022/05/06 12:36:34;;;;;;;5.80;1.67;;;21.80;45.90;;;;;;6179147;23;20005;-90
2022/05/06 12:39:00;;;;;;;3.67;1.42;;;22.00;45.50;;;;;;6156540;23;20044;-90
2022/05/06 12:41:33;;;;;;;3.65;1.35;;;22.10;44.50;;;;;;6154253;23;20005;-91
2022/05/06 12:44:20;;;;;;;2.85;1.52;;;22.10;44.60;;;;;;6180043;23;20432;-90
2022/05/06 12:46:47;;;;;;;4.68;1.90;;;21.90;45.80;;;;;;6148434;23;20383;-90
2022/05/06 12:51:57;;;;;;;3.75;2.28;;;22.00;45.20;;;;;;6156589;23;20027;-89
2022/05/06 12:54:23;;;;;;;4.00;1.70;;;22.30;44.20;;;;;;6179625;23;20013;-88
2022/05/06 12:56:49;;;;;;;2.53;1.58;;;22.30;43.80;;;;;;6156266;23;20005;-88
2022/05/06 12:59:14;;;;;;;5.65;1.27;;;22.20;43.70;;;;;;6156877;23;20009;-87
2022/05/06 13:01:40;;;;;;;4.80;2.20;;;22.30;44.70;;;;;;6155760;23;20005;-89
2022/05/06 13:04:06;;;;;;;5.53;1.92;;;22.40;44.80;;;;;;6156910;23;20029;-89
2022/05/06 13:06:32;;;;;;;2.75;1.33;;;22.40;43.60;;;;;;6156245;23;20056;-89
2022/05/06 13:08:59;;;;;;;4.95;2.20;;;22.10;44.50;;;;;;6155333;23;20344;-89
2022/05/06 13:11:25;;;;;;;4.95;1.23;;;22.10;44.80;;;;;;6179276;23;20052;-88
2022/05/06 13:13:50;;;;;;;5.75;1.67;;;22.30;44.80;;;;;;6156722;23;20002;-87
2022/05/06 13:16:16;;;;;;;3.45;1.27;;;22.90;45.30;;;;;;6178735;23;20336;-88
2022/05/06 13:18:42;;;;;;;4.97;1.38;;;23.60;42.60;;;;;;6155735;23;20013;-89
2022/05/06 13:21:08;;;;;;;7.75;1.40;;;24.00;40.60;;;;;;6179355;23;20008;-88
2022/05/06 13:23:33;;;;;;;5.32;1.40;;;24.30;40.10;;;;;;6155452;23;20084;-89
2022/05/06 13:26:00;;;;;;;2.53;1.27;;;24.60;39.30;;;;;;6156164;23;20048;-87
2022/05/06 13:28:25;;;;;;;3.35;1.20;;;24.90;40.30;;;;;;6155077;23;20016;-87
2022/05/06 13:30:51;;;;;;;5.38;1.50;;;25.30;40.50;;;;;;6155990;23;19994;-89
2022/05/06 13:33:17;;;;;;;4.82;1.70;;;25.80;37.20;;;;;;6154181;23;20025;-89
2022/05/06 13:35:45;;;;;;;1.95;0.98;;;26.00;37.80;;;;;;6155969;23;20336;-91
2022/05/06 13:38:11;;;;;;;7.63;1.50;;;26.50;37.90;;;;;;6155401;23;20340;-89
2022/05/06 13:40:37;;;;;;;7.05;1.30;;;26.80;36.60;;;;;;6155689;23;20001;-88